Aktualne dane pomiarowe

Uwaga, wersja testowa! Automatyczne pobieranie danych za pomocą narzędzi lub skryptów to umożliwiających jest zabronione.

Dane meteo z obszaru Polski uzyskane na podstawie depesz SYNOP pobieranych co godzinę z NWS. Najedź myszką na symbol przedstawiony w tabeli, aby uzyskać informacje co do jego znaczenia. Prosimy pamiętać, że to testowa wersja strony, która jeszcze nie jest ukończona. Stworzono również jest krótki FAQ dotyczący korzystania z tej podstrony Anomalie temperatury w chwili obecnej odniesione są do okresu referencyjnego 1951-2016. Okres ten będzie później zmieniony na 1981-2010. Kliknij ikonę aby pobrać plik CSV. Kliknij ikonę aby wygenerować mapę synoptyczną dla danego terminu.

Wybierz Datę:    

        

Kasprowy Wierch (12650)

Dane terminowe dla wybranej stacji. Kliknij datę, aby otrzymać dane z tego terminu dla wszystkich stacji.

TemperaturaZachmurzenieWiatrCiśnienieOpadyPogoda
 Data t td wb tx tn tg rh  Nt Nl Cl Cm Ch ws wd g1 g2 wx mslp ppp ch 24h 12h t ww ww w1 w2  
2019-08-08 23:00:00 8.2 3.2 5.4--- 7150.0wx-wx5wx--5- 802.8 0.4---------
2019-08-08 22:00:00 8.1 6.2 6.8--- 8850.0wxwxwxwx3wx--3- 802.8 0.4---------
2019-08-08 21:00:00 8.2 6.7 7.2--- 9050.0wxwxwxwxwx1wx--1- 802.4 0.4---------
2019-08-08 20:00:00 8.5 6.8 7.4--- 8950.0wxwxwxwxwx1wx---- 802.4 0.4---------
2019-08-08 19:00:00 9.0 8.1 8.3--- 9450.0wxwxwxwx2wx--2- 802.4 0.4---------
2019-08-08 18:00:00 9.3 8.1 8.4 13.1 7.4- 9250.0wxwxwxwx3wx--3- 802.0 -0.1- 0.412wx-w1--
2019-08-08 17:00:00 10.1 8.5 9.0--- 9050.0wxwxwxwx2wx--2- 802.0 0.1---------
2019-08-08 16:00:00 11.5 9.1 9.9--- 8550.0wxwxwxwx1wx---- 802.0 0.1---------
2019-08-08 15:00:00 12.3 9.1 10.2--- 8150.0wxwxwxwx1wx--1- 802.1 0.3---wx-w1--
2019-08-08 14:00:00 12.4 7.9 9.6--- 7450.0wxwxwxwx4wx--4- 801.9 0.4---------
2019-08-08 13:00:00 11.2 8.8 9.6--- 8550.0wxwxwxwx3wx--3- 801.9 0.6---wx---
2019-08-08 12:00:00 10.3 9.7 9.8--- 960.1wxwxwx2wx-102- 801.8 1.1- 0.46wx-w1w2--
2019-08-08 11:00:00 9.2 8.1 8.4--- 9340.0wxwxwxwx2wx--2- 801.5 1.1---------
2019-08-08 10:00:00 8.2 7.9 7.9--- 9840.0wxwxwxwx4wx--4- 801.3 1.6---------
2019-08-08 09:00:00 8.7 8.7 8.6--- 10015.0wxwxwx4wx-104- 800.7 1.7---wx-w1--
2019-08-08 08:00:00 8.0 8.0 7.9--- 1000.4wxwxwx3wx--3- 800.4 1.6---wx-w1w2--
2019-08-08 07:00:00 8.4 8.4 8.3--- 1000.1wx-5wx-105- 799.7 1.6---wx-w1w2--
2019-08-08 06:00:00 8.3 8.3 8.2 12.0 7.6- 1000.1wx-7wx12277- 799.0 1.1 15.8 13.012wx-w1w2- 5.5
2019-08-08 05:00:00 8.2 8.2 8.1--- 1000.1wx-7wx13--- 798.8 1.1---wx-w1--
2019-08-08 04:00:00 8.2 8.1 8.1--- 9910.0wxwxwx8wx15--- 798.1 0.3---------
2019-08-08 03:00:00 8.4 8.4 8.3--- 10010.0wxwxwx8wx13278- 797.9 1.6---wx-w1w2--
2019-08-08 02:00:00 8.8 8.8 8.7--- 1000.1wx-9wx-169- 797.7 -0.3---wx-w1w2--
2019-08-08 01:00:00 8.3 8.3 8.2--- 1000.1wx-9wx16279- 797.8 -0.5---wx-w1w2--
2019-08-08 00:00:00 8.4 8.4 8.3--- 1000.1wx-13wx232313- 796.3 -2.4- 10.06wx-w1w2--
2019-08-07 23:00:00 11.5 11.3 11.3--- 990.1wx-8wx16188- 798.0 -1.3---wx-w1w2--
2019-08-07 22:00:00 11.4 11.2 11.2--- 990.1wxwxwx11wx171711- 798.3 -1.4---wx-w1--
2019-08-07 21:00:00 11.3 11.1 11.1--- 9930.0wxwxwx9wx15--- 798.7 -0.6---------
2019-08-07 20:00:00 11.2 11.0 11.0--- 9930.0wxwxwx8wx14--- 799.3 -0.2---------
2019-08-07 19:00:00 11.6 10.2 10.6--- 9130.0wxwxwxwx8wx---- 799.7 0.2---------
2019-08-07 18:00:00 11.6 10.7 10.9 13.9 10.9- 9420.0wxwxwxwx11wx-1711- 799.3 -0.5- 3.012wx-w1w2--
2019-08-07 17:00:00 11.5 10.6 10.8--- 9420.0wxwxwxwxwx11wx-1711- 799.5 -1.0---------
2019-08-07 16:00:00 11.9 10.6 11.0--- 9220.0wxwxwxwxwx10wx-1610- 799.5 -0.8---wx---
2019-08-07 15:00:00 11.5 11.3 11.3--- 990.8wxwxwxwxwx11wx-1611- 799.8 -1.3---wx-w1w2--
2019-08-07 14:00:00 11.7 10.9 11.1--- 9520.0wxwxwx6wx11--- 800.5 -0.4---------
2019-08-07 13:00:00 12.9 11.0 11.6--- 8820.0wxwxwxwx7wx14147- 800.3 -1.0---wx---
2019-08-07 12:00:00 13.0 11.6 12.0--- 9130.0wxwxwx5wx12155- 801.1 0.1- 0.06wx---
2019-08-07 11:00:00 13.7 11.4 12.1--- 8630.0wxwxwx4wx12124- 800.9 -0.3---------
2019-08-07 10:00:00 13.2 11.6 12.1--- 9030.0wxwxwxwxwx6wx12156- 801.3 0.2---------
2019-08-07 09:00:00 12.8 10.5 11.2--- 8630.0wxwxwxwxwx8wx15--- 801.0 -0.1---------
2019-08-07 08:00:00 12.3 10.4 11.0--- 8850.0wxwxwxwxwx8wx13148- 801.2 0.3---------
2019-08-07 07:00:00 12.5 9.1 10.3--- 8050.0wxwxwxwxwx6wx12126- 801.1 0.0---------
2019-08-07 06:00:00 11.4 10.0 10.4 11.5 9.7- 9150.0wxwxwxwxwx6wx-116- 801.1 -0.1- 0.012----- 5.5
2019-08-07 05:00:00 10.7 9.6 9.9--- 9330.0wxwxwxwxwx10wx--10- 800.9 -0.3---------
2019-08-07 04:00:00 10.4 9.6 9.8--- 9550.0wxwxwxwxwx9wx---- 801.1 -0.1---------
2019-08-07 03:00:00 10.1 9.6 9.7--- 9740.0wxwxwxwxwx8wx--8- 801.2 -0.1---------
2019-08-07 02:00:00 10.0 9.4 9.5--- 9640.0wxwxwxwxwx9wx--9- 801.2 -0.3---------
2019-08-07 01:00:00 9.9 9.0 9.2--- 9430.0wxwxwxwxwx9wx--9- 801.2 -0.3---------
2019-08-07 00:00:00 9.9 9.0 9.2--- 9430.0wxwxwxwxwx8wx--8- 801.3 -0.4- 0.06------
4.1 ms

 

Print Friendly, PDF & Email